createdAt,value
2022-11-16T17:37:20.697Z,2.99
2022-11-16T17:42:20.703Z,2.83
2022-11-16T17:47:20.715Z,3.37
2022-11-16T17:52:20.677Z,3.49
2022-11-16T17:57:20.720Z,3.61
2022-11-16T18:02:20.684Z,3.22
2022-11-16T18:07:20.766Z,3.49
2022-11-16T18:12:20.716Z,3.78
2022-11-16T18:17:20.741Z,3.56
2022-11-16T18:22:20.730Z,3.83
2022-11-16T18:27:20.719Z,3.7
2022-11-16T18:32:20.703Z,3.79
2022-11-16T18:37:20.696Z,3.51
2022-11-16T18:42:20.695Z,2.97
2022-11-16T18:47:20.735Z,2.77
2022-11-16T18:52:20.713Z,2.82
2022-11-16T18:57:20.701Z,2.95
2022-11-16T19:02:20.705Z,3.21
2022-11-16T19:07:20.762Z,3.03
2022-11-16T19:12:20.708Z,2.67
2022-11-16T19:17:20.713Z,2.23
2022-11-16T19:22:20.746Z,2.39
2022-11-16T19:27:20.755Z,2.42
2022-11-16T19:32:20.741Z,2.87
2022-11-16T19:37:20.722Z,2.67
2022-11-16T19:42:20.720Z,2.48
2022-11-16T19:47:20.723Z,2.52
2022-11-16T19:52:20.763Z,2.52
2022-11-16T19:57:20.722Z,2.6
2022-11-16T20:02:20.723Z,2.64
2022-11-16T20:07:20.777Z,2.89
2022-11-16T20:12:20.770Z,2.66
2022-11-16T20:17:20.729Z,2.59
2022-11-16T20:22:20.770Z,2.5
2022-11-16T20:27:20.780Z,2.18
2022-11-16T20:32:20.741Z,2.58
2022-11-16T20:37:20.739Z,2.37
2022-11-16T20:42:20.729Z,2.33
2022-11-16T20:47:20.765Z,2.22
2022-11-16T20:52:20.779Z,2.62
2022-11-16T20:57:20.769Z,2.42
2022-11-16T21:02:20.773Z,2.12
2022-11-16T21:07:20.822Z,2.14
2022-11-16T21:12:20.772Z,2.01
2022-11-16T21:17:20.783Z,1.74
2022-11-16T21:22:20.769Z,1.67
2022-11-16T21:27:20.760Z,1.53
2022-11-16T21:32:20.770Z,1.53
2022-11-16T21:37:20.773Z,1.52
2022-11-16T21:42:20.791Z,1.62
2022-11-16T21:47:21.053Z,1.72
2022-11-16T21:52:20.758Z,1.58
2022-11-16T21:57:20.768Z,1.43
2022-11-16T22:02:20.804Z,1.35
2022-11-16T22:07:20.832Z,1.29
2022-11-16T22:12:20.813Z,1.54
2022-11-16T22:17:20.820Z,1.32
2022-11-16T22:22:20.857Z,1.34
2022-11-16T22:27:20.815Z,1.18
2022-11-16T22:32:20.786Z,1.16
2022-11-16T22:37:20.844Z,1.01
2022-11-16T22:42:20.795Z,1.09
2022-11-16T22:47:20.838Z,1.16
2022-11-16T22:52:20.851Z,1.23
2022-11-16T22:57:20.806Z,1.2
2022-11-16T23:02:20.800Z,1.27
2022-11-16T23:07:20.908Z,1.22
2022-11-16T23:12:20.802Z,1.37
2022-11-16T23:17:20.864Z,1.23
2022-11-16T23:22:20.799Z,1.12
2022-11-16T23:27:20.811Z,0.93
2022-11-16T23:32:20.858Z,0.67
2022-11-16T23:37:20.846Z,0.61
2022-11-16T23:42:20.808Z,0.58
2022-11-16T23:47:20.809Z,0.6
2022-11-16T23:52:20.818Z,0.61
2022-11-16T23:57:20.852Z,0.68
